sensor_id;sensor_type;location;lat;lon;timestamp;P1;durP1;ratioP1;P2;durP2;ratioP2
4837;SDS011;2433;48.768;9.154;2023-05-07T00:00:33;3.07;;;2.70;;
4837;SDS011;2433;48.768;9.154;2023-05-07T00:02:59;2.53;;;2.33;;
4837;SDS011;2433;48.768;9.154;2023-05-07T00:05:25;2.77;;;2.50;;
4837;SDS011;2433;48.768;9.154;2023-05-07T00:07:51;7.27;;;4.57;;
4837;SDS011;2433;48.768;9.154;2023-05-07T00:10:18;6.03;;;2.97;;
4837;SDS011;2433;48.768;9.154;2023-05-07T00:12:44;3.40;;;2.60;;
4837;SDS011;2433;48.768;9.154;2023-05-07T00:15:10;3.80;;;2.93;;
4837;SDS011;2433;48.768;9.154;2023-05-07T00:17:36;4.17;;;2.80;;
4837;SDS011;2433;48.768;9.154;2023-05-07T00:20:02;4.50;;;3.30;;
4837;SDS011;2433;48.768;9.154;2023-05-07T00:22:30;3.90;;;2.80;;
4837;SDS011;2433;48.768;9.154;2023-05-07T00:24:57;3.60;;;2.73;;
4837;SDS011;2433;48.768;9.154;2023-05-07T00:27:23;3.53;;;3.23;;
4837;SDS011;2433;48.768;9.154;2023-05-07T00:29:49;3.00;;;2.67;;
4837;SDS011;2433;48.768;9.154;2023-05-07T00:32:15;3.13;;;2.83;;
4837;SDS011;2433;48.768;9.154;2023-05-07T00:34:41;4.20;;;3.37;;
4837;SDS011;2433;48.768;9.154;2023-05-07T00:37:06;3.47;;;2.90;;
4837;SDS011;2433;48.768;9.154;2023-05-07T00:39:35;3.30;;;3.00;;
4837;SDS011;2433;48.768;9.154;2023-05-07T00:42:01;5.87;;;2.80;;
4837;SDS011;2433;48.768;9.154;2023-05-07T00:44:28;3.37;;;2.63;;
4837;SDS011;2433;48.768;9.154;2023-05-07T00:46:53;3.40;;;3.10;;
4837;SDS011;2433;48.768;9.154;2023-05-07T00:49:19;3.30;;;2.77;;
4837;SDS011;2433;48.768;9.154;2023-05-07T00:51:45;3.73;;;2.80;;
4837;SDS011;2433;48.768;9.154;2023-05-07T00:54:11;6.13;;;3.47;;
4837;SDS011;2433;48.768;9.154;2023-05-07T00:56:38;3.77;;;3.30;;
4837;SDS011;2433;48.768;9.154;2023-05-07T00:59:04;5.50;;;3.53;;
4837;SDS011;2433;48.768;9.154;2023-05-07T01:01:31;4.10;;;3.23;;
4837;SDS011;2433;48.768;9.154;2023-05-07T01:03:57;4.03;;;3.63;;
4837;SDS011;2433;48.768;9.154;2023-05-07T01:06:23;4.93;;;3.70;;
4837;SDS011;2433;48.768;9.154;2023-05-07T01:08:50;4.33;;;3.77;;
4837;SDS011;2433;48.768;9.154;2023-05-07T01:11:18;4.30;;;3.23;;
4837;SDS011;2433;48.768;9.154;2023-05-07T01:13:46;4.23;;;3.80;;
4837;SDS011;2433;48.768;9.154;2023-05-07T01:16:12;5.07;;;3.90;;
4837;SDS011;2433;48.768;9.154;2023-05-07T01:18:38;4.60;;;4.03;;
4837;SDS011;2433;48.768;9.154;2023-05-07T01:21:04;4.60;;;4.07;;
4837;SDS011;2433;48.768;9.154;2023-05-07T01:23:31;4.87;;;3.60;;
4837;SDS011;2433;48.768;9.154;2023-05-07T01:25:58;4.60;;;3.23;;
4837;SDS011;2433;48.768;9.154;2023-05-07T01:28:25;6.67;;;4.20;;
4837;SDS011;2433;48.768;9.154;2023-05-07T01:30:54;3.97;;;3.57;;
4837;SDS011;2433;48.768;9.154;2023-05-07T01:33:21;4.50;;;2.90;;
4837;SDS011;2433;48.768;9.154;2023-05-07T01:35:48;4.97;;;3.80;;
4837;SDS011;2433;48.768;9.154;2023-05-07T01:38:16;3.50;;;3.20;;
4837;SDS011;2433;48.768;9.154;2023-05-07T01:40:42;3.90;;;3.37;;
4837;SDS011;2433;48.768;9.154;2023-05-07T01:43:08;3.60;;;3.30;;
4837;SDS011;2433;48.768;9.154;2023-05-07T01:45:36;4.70;;;3.53;;
4837;SDS011;2433;48.768;9.154;2023-05-07T01:48:02;3.90;;;3.30;;
4837;SDS011;2433;48.768;9.154;2023-05-07T01:50:28;4.23;;;3.30;;
4837;SDS011;2433;48.768;9.154;2023-05-07T01:52:55;3.23;;;2.93;;
4837;SDS011;2433;48.768;9.154;2023-05-07T01:55:20;4.20;;;3.80;;
4837;SDS011;2433;48.768;9.154;2023-05-07T01:57:46;3.40;;;3.10;;
4837;SDS011;2433;48.768;9.154;2023-05-07T02:00:12;4.70;;;3.47;;
4837;SDS011;2433;48.768;9.154;2023-05-07T02:02:41;4.90;;;3.53;;
4837;SDS011;2433;48.768;9.154;2023-05-07T02:05:14;3.73;;;3.33;;
4837;SDS011;2433;48.768;9.154;2023-05-07T02:07:41;4.33;;;3.80;;
4837;SDS011;2433;48.768;9.154;2023-05-07T02:10:07;5.40;;;3.83;;
4837;SDS011;2433;48.768;9.154;2023-05-07T02:12:32;5.10;;;3.80;;
4837;SDS011;2433;48.768;9.154;2023-05-07T02:14:58;3.60;;;3.27;;
4837;SDS011;2433;48.768;9.154;2023-05-07T02:17:24;4.23;;;3.53;;
4837;SDS011;2433;48.768;9.154;2023-05-07T02:19:50;4.00;;;3.37;;
4837;SDS011;2433;48.768;9.154;2023-05-07T02:22:16;4.53;;;3.87;;
4837;SDS011;2433;48.768;9.154;2023-05-07T02:24:41;3.97;;;3.57;;
4837;SDS011;2433;48.768;9.154;2023-05-07T02:27:07;5.30;;;3.90;;
4837;SDS011;2433;48.768;9.154;2023-05-07T02:29:32;5.23;;;4.40;;
4837;SDS011;2433;48.768;9.154;2023-05-07T02:31:58;5.63;;;4.00;;
4837;SDS011;2433;48.768;9.154;2023-05-07T02:34:24;4.70;;;3.20;;
4837;SDS011;2433;48.768;9.154;2023-05-07T02:36:49;4.10;;;3.37;;
4837;SDS011;2433;48.768;9.154;2023-05-07T02:39:19;4.00;;;3.47;;
4837;SDS011;2433;48.768;9.154;2023-05-07T02:41:44;4.40;;;3.33;;
4837;SDS011;2433;48.768;9.154;2023-05-07T02:44:10;3.90;;;3.00;;
4837;SDS011;2433;48.768;9.154;2023-05-07T02:46:36;5.17;;;3.50;;
4837;SDS011;2433;48.768;9.154;2023-05-07T02:49:07;3.63;;;3.33;;
4837;SDS011;2433;48.768;9.154;2023-05-07T02:51:33;4.27;;;3.70;;
4837;SDS011;2433;48.768;9.154;2023-05-07T02:54:01;3.53;;;3.23;;
4837;SDS011;2433;48.768;9.154;2023-05-07T02:56:28;3.87;;;3.00;;
4837;SDS011;2433;48.768;9.154;2023-05-07T02:58:53;4.07;;;3.23;;
4837;SDS011;2433;48.768;9.154;2023-05-07T03:01:21;3.87;;;3.20;;
4837;SDS011;2433;48.768;9.154;2023-05-07T03:03:57;4.77;;;3.47;;
4837;SDS011;2433;48.768;9.154;2023-05-07T03:06:22;5.10;;;3.60;;
4837;SDS011;2433;48.768;9.154;2023-05-07T03:08:48;5.20;;;3.50;;
4837;SDS011;2433;48.768;9.154;2023-05-07T03:11:13;4.30;;;3.90;;
4837;SDS011;2433;48.768;9.154;2023-05-07T03:13:39;5.50;;;3.90;;
4837;SDS011;2433;48.768;9.154;2023-05-07T03:16:06;4.27;;;3.63;;
4837;SDS011;2433;48.768;9.154;2023-05-07T03:18:31;4.57;;;3.47;;
4837;SDS011;2433;48.768;9.154;2023-05-07T03:20:57;4.37;;;3.53;;
4837;SDS011;2433;48.768;9.154;2023-05-07T03:23:22;6.07;;;3.07;;
4837;SDS011;2433;48.768;9.154;2023-05-07T03:25:48;3.37;;;3.07;;
4837;SDS011;2433;48.768;9.154;2023-05-07T03:28:14;3.47;;;3.17;;
4837;SDS011;2433;48.768;9.154;2023-05-07T03:30:46;4.87;;;2.70;;
4837;SDS011;2433;48.768;9.154;2023-05-07T03:33:12;5.07;;;3.40;;
4837;SDS011;2433;48.768;9.154;2023-05-07T03:35:38;3.17;;;2.90;;
4837;SDS011;2433;48.768;9.154;2023-05-07T03:38:04;3.30;;;2.90;;
4837;SDS011;2433;48.768;9.154;2023-05-07T03:40:32;3.50;;;2.70;;
4837;SDS011;2433;48.768;9.154;2023-05-07T03:42:59;4.13;;;3.17;;
4837;SDS011;2433;48.768;9.154;2023-05-07T03:45:26;4.83;;;3.00;;
4837;SDS011;2433;48.768;9.154;2023-05-07T03:48:02;5.83;;;3.77;;
4837;SDS011;2433;48.768;9.154;2023-05-07T03:50:28;6.37;;;3.40;;
4837;SDS011;2433;48.768;9.154;2023-05-07T03:52:53;4.00;;;3.70;;
4837;SDS011;2433;48.768;9.154;2023-05-07T03:55:21;7.10;;;3.93;;
4837;SDS011;2433;48.768;9.154;2023-05-07T03:57:54;4.00;;;3.17;;
4837;SDS011;2433;48.768;9.154;2023-05-07T04:00:20;3.63;;;3.33;;
4837;SDS011;2433;48.768;9.154;2023-05-07T04:02:46;3.10;;;2.80;;
4837;SDS011;2433;48.768;9.154;2023-05-07T04:05:14;3.20;;;2.83;;
4837;SDS011;2433;48.768;9.154;2023-05-07T04:07:41;3.47;;;2.97;;
4837;SDS011;2433;48.768;9.154;2023-05-07T04:10:08;5.17;;;2.97;;
4837;SDS011;2433;48.768;9.154;2023-05-07T04:12:34;4.37;;;2.90;;
4837;SDS011;2433;48.768;9.154;2023-05-07T04:15:00;3.80;;;3.23;;
4837;SDS011;2433;48.768;9.154;2023-05-07T04:17:26;3.83;;;3.40;;
4837;SDS011;2433;48.768;9.154;2023-05-07T04:19:52;3.10;;;2.80;;
4837;SDS011;2433;48.768;9.154;2023-05-07T04:22:17;3.10;;;2.73;;
4837;SDS011;2433;48.768;9.154;2023-05-07T04:24:44;2.90;;;2.40;;
4837;SDS011;2433;48.768;9.154;2023-05-07T04:27:11;3.03;;;2.73;;
4837;SDS011;2433;48.768;9.154;2023-05-07T04:29:38;3.13;;;2.83;;
4837;SDS011;2433;48.768;9.154;2023-05-07T04:32:09;2.73;;;2.47;;
4837;SDS011;2433;48.768;9.154;2023-05-07T04:34:36;3.20;;;2.30;;
4837;SDS011;2433;48.768;9.154;2023-05-07T04:37:02;2.77;;;2.50;;
4837;SDS011;2433;48.768;9.154;2023-05-07T04:39:27;2.77;;;2.57;;
4837;SDS011;2433;48.768;9.154;2023-05-07T04:41:54;2.87;;;2.67;;
4837;SDS011;2433;48.768;9.154;2023-05-07T04:44:19;3.13;;;2.83;;
4837;SDS011;2433;48.768;9.154;2023-05-07T04:46:46;3.17;;;2.87;;
4837;SDS011;2433;48.768;9.154;2023-05-07T04:49:12;4.93;;;3.10;;
4837;SDS011;2433;48.768;9.154;2023-05-07T04:51:38;2.97;;;2.30;;
4837;SDS011;2433;48.768;9.154;2023-05-07T04:54:04;3.27;;;2.97;;
4837;SDS011;2433;48.768;9.154;2023-05-07T04:56:30;4.37;;;3.10;;
4837;SDS011;2433;48.768;9.154;2023-05-07T04:58:57;3.33;;;2.83;;
4837;SDS011;2433;48.768;9.154;2023-05-07T05:01:22;3.70;;;3.10;;
4837;SDS011;2433;48.768;9.154;2023-05-07T05:03:48;4.70;;;2.87;;
4837;SDS011;2433;48.768;9.154;2023-05-07T05:06:14;4.77;;;2.77;;
4837;SDS011;2433;48.768;9.154;2023-05-07T05:08:40;3.23;;;2.93;;
4837;SDS011;2433;48.768;9.154;2023-05-07T05:11:05;3.37;;;3.07;;
4837;SDS011;2433;48.768;9.154;2023-05-07T05:13:33;3.10;;;2.43;;
4837;SDS011;2433;48.768;9.154;2023-05-07T05:16:02;2.67;;;2.47;;
4837;SDS011;2433;48.768;9.154;2023-05-07T05:18:31;3.17;;;2.30;;
4837;SDS011;2433;48.768;9.154;2023-05-07T05:20:56;4.10;;;2.80;;
4837;SDS011;2433;48.768;9.154;2023-05-07T05:23:22;3.50;;;2.43;;
4837;SDS011;2433;48.768;9.154;2023-05-07T05:25:48;3.50;;;2.93;;
4837;SDS011;2433;48.768;9.154;2023-05-07T05:28:14;3.13;;;2.83;;
4837;SDS011;2433;48.768;9.154;2023-05-07T05:30:40;3.43;;;3.13;;
4837;SDS011;2433;48.768;9.154;2023-05-07T05:33:06;4.30;;;2.90;;
4837;SDS011;2433;48.768;9.154;2023-05-07T05:35:32;3.70;;;3.40;;
4837;SDS011;2433;48.768;9.154;2023-05-07T05:38:01;4.73;;;3.80;;
4837;SDS011;2433;48.768;9.154;2023-05-07T05:40:27;3.83;;;3.27;;
4837;SDS011;2433;48.768;9.154;2023-05-07T05:42:53;4.13;;;2.90;;
4837;SDS011;2433;48.768;9.154;2023-05-07T05:45:19;3.93;;;3.53;;
4837;SDS011;2433;48.768;9.154;2023-05-07T05:47:45;4.13;;;3.43;;
4837;SDS011;2433;48.768;9.154;2023-05-07T05:50:11;5.10;;;3.30;;
4837;SDS011;2433;48.768;9.154;2023-05-07T05:52:36;4.03;;;3.67;;
4837;SDS011;2433;48.768;9.154;2023-05-07T05:55:02;5.23;;;3.10;;
4837;SDS011;2433;48.768;9.154;2023-05-07T05:57:28;3.70;;;3.37;;
4837;SDS011;2433;48.768;9.154;2023-05-07T05:59:54;4.53;;;3.60;;
4837;SDS011;2433;48.768;9.154;2023-05-07T06:02:20;3.20;;;2.90;;
4837;SDS011;2433;48.768;9.154;2023-05-07T06:04:45;3.60;;;2.77;;
4837;SDS011;2433;48.768;9.154;2023-05-07T06:07:15;4.63;;;3.23;;
4837;SDS011;2433;48.768;9.154;2023-05-07T06:09:41;4.80;;;3.33;;
4837;SDS011;2433;48.768;9.154;2023-05-07T06:12:07;6.47;;;3.40;;
4837;SDS011;2433;48.768;9.154;2023-05-07T06:14:33;3.20;;;2.77;;
4837;SDS011;2433;48.768;9.154;2023-05-07T06:16:59;4.07;;;3.07;;
4837;SDS011;2433;48.768;9.154;2023-05-07T06:19:25;3.87;;;3.10;;
4837;SDS011;2433;48.768;9.154;2023-05-07T06:21:54;4.37;;;2.87;;
4837;SDS011;2433;48.768;9.154;2023-05-07T06:24:22;4.10;;;3.70;;
4837;SDS011;2433;48.768;9.154;2023-05-07T06:26:49;3.10;;;2.73;;
4837;SDS011;2433;48.768;9.154;2023-05-07T06:29:14;3.97;;;3.57;;
4837;SDS011;2433;48.768;9.154;2023-05-07T06:31:41;4.30;;;3.90;;
4837;SDS011;2433;48.768;9.154;2023-05-07T06:34:08;5.10;;;3.27;;
4837;SDS011;2433;48.768;9.154;2023-05-07T06:36:36;4.70;;;3.43;;
4837;SDS011;2433;48.768;9.154;2023-05-07T06:39:11;3.83;;;2.90;;
4837;SDS011;2433;48.768;9.154;2023-05-07T06:41:36;3.67;;;3.00;;
4837;SDS011;2433;48.768;9.154;2023-05-07T06:44:07;6.33;;;3.83;;
4837;SDS011;2433;48.768;9.154;2023-05-07T06:46:41;5.00;;;3.20;;
4837;SDS011;2433;48.768;9.154;2023-05-07T06:49:07;4.87;;;3.60;;
4837;SDS011;2433;48.768;9.154;2023-05-07T06:51:32;4.53;;;3.87;;
4837;SDS011;2433;48.768;9.154;2023-05-07T06:54:01;3.40;;;3.07;;
4837;SDS011;2433;48.768;9.154;2023-05-07T06:56:30;4.30;;;3.90;;
4837;SDS011;2433;48.768;9.154;2023-05-07T06:58:56;3.20;;;2.60;;
4837;SDS011;2433;48.768;9.154;2023-05-07T07:01:22;6.13;;;3.90;;
4837;SDS011;2433;48.768;9.154;2023-05-07T07:03:48;5.43;;;3.83;;
4837;SDS011;2433;48.768;9.154;2023-05-07T07:06:14;3.77;;;3.43;;
4837;SDS011;2433;48.768;9.154;2023-05-07T07:08:40;3.27;;;3.00;;
4837;SDS011;2433;48.768;9.154;2023-05-07T07:11:06;5.67;;;3.40;;
4837;SDS011;2433;48.768;9.154;2023-05-07T07:13:32;4.23;;;3.80;;
4837;SDS011;2433;48.768;9.154;2023-05-07T07:15:57;5.77;;;3.83;;
4837;SDS011;2433;48.768;9.154;2023-05-07T07:18:23;5.50;;;4.07;;
4837;SDS011;2433;48.768;9.154;2023-05-07T07:20:50;3.70;;;3.37;;
4837;SDS011;2433;48.768;9.154;2023-05-07T07:23:16;4.77;;;3.53;;
4837;SDS011;2433;48.768;9.154;2023-05-07T07:25:41;3.17;;;2.90;;
4837;SDS011;2433;48.768;9.154;2023-05-07T07:28:07;3.00;;;2.80;;
4837;SDS011;2433;48.768;9.154;2023-05-07T07:30:33;4.60;;;3.83;;
4837;SDS011;2433;48.768;9.154;2023-05-07T07:32:59;6.13;;;3.10;;
4837;SDS011;2433;48.768;9.154;2023-05-07T07:35:34;3.53;;;3.23;;
4837;SDS011;2433;48.768;9.154;2023-05-07T07:38:00;3.93;;;3.43;;
4837;SDS011;2433;48.768;9.154;2023-05-07T07:40:27;7.00;;;3.77;;
4837;SDS011;2433;48.768;9.154;2023-05-07T07:42:53;4.00;;;3.50;;
4837;SDS011;2433;48.768;9.154;2023-05-07T07:45:19;3.23;;;2.90;;
4837;SDS011;2433;48.768;9.154;2023-05-07T07:47:47;3.40;;;3.10;;
4837;SDS011;2433;48.768;9.154;2023-05-07T07:50:13;2.80;;;2.47;;
4837;SDS011;2433;48.768;9.154;2023-05-07T07:52:39;2.97;;;2.67;;
4837;SDS011;2433;48.768;9.154;2023-05-07T07:55:06;2.73;;;2.53;;
4837;SDS011;2433;48.768;9.154;2023-05-07T07:57:33;2.93;;;2.50;;
4837;SDS011;2433;48.768;9.154;2023-05-07T07:59:59;2.97;;;2.77;;
4837;SDS011;2433;48.768;9.154;2023-05-07T08:02:26;3.60;;;2.70;;
4837;SDS011;2433;48.768;9.154;2023-05-07T08:04:52;3.77;;;2.67;;
4837;SDS011;2433;48.768;9.154;2023-05-07T08:07:18;2.70;;;2.50;;
4837;SDS011;2433;48.768;9.154;2023-05-07T08:09:47;3.03;;;2.73;;
4837;SDS011;2433;48.768;9.154;2023-05-07T08:12:15;2.57;;;2.37;;
4837;SDS011;2433;48.768;9.154;2023-05-07T08:14:41;2.93;;;2.40;;
4837;SDS011;2433;48.768;9.154;2023-05-07T08:17:07;5.53;;;3.03;;
4837;SDS011;2433;48.768;9.154;2023-05-07T08:19:35;2.73;;;2.50;;
4837;SDS011;2433;48.768;9.154;2023-05-07T08:22:02;2.43;;;2.27;;
4837;SDS011;2433;48.768;9.154;2023-05-07T08:24:29;2.20;;;2.00;;
4837;SDS011;2433;48.768;9.154;2023-05-07T08:26:56;3.60;;;3.30;;
4837;SDS011;2433;48.768;9.154;2023-05-07T08:29:21;3.80;;;3.03;;
4837;SDS011;2433;48.768;9.154;2023-05-07T08:31:47;2.60;;;2.40;;
4837;SDS011;2433;48.768;9.154;2023-05-07T08:34:13;3.07;;;2.87;;
4837;SDS011;2433;48.768;9.154;2023-05-07T08:36:41;1.93;;;1.83;;
4837;SDS011;2433;48.768;9.154;2023-05-07T08:39:08;2.77;;;2.57;;
4837;SDS011;2433;48.768;9.154;2023-05-07T08:41:34;2.80;;;2.30;;
4837;SDS011;2433;48.768;9.154;2023-05-07T08:44:00;3.50;;;2.20;;
4837;SDS011;2433;48.768;9.154;2023-05-07T08:46:29;2.10;;;1.90;;
4837;SDS011;2433;48.768;9.154;2023-05-07T08:48:56;2.20;;;2.07;;
4837;SDS011;2433;48.768;9.154;2023-05-07T08:51:22;4.00;;;2.60;;
4837;SDS011;2433;48.768;9.154;2023-05-07T08:53:48;3.77;;;2.97;;
4837;SDS011;2433;48.768;9.154;2023-05-07T08:56:21;2.30;;;2.10;;
4837;SDS011;2433;48.768;9.154;2023-05-07T08:58:47;2.60;;;2.40;;
4837;SDS011;2433;48.768;9.154;2023-05-07T09:01:13;2.20;;;2.00;;
4837;SDS011;2433;48.768;9.154;2023-05-07T09:03:41;2.40;;;2.20;;
4837;SDS011;2433;48.768;9.154;2023-05-07T09:06:09;2.53;;;2.40;;
4837;SDS011;2433;48.768;9.154;2023-05-07T09:08:35;2.40;;;2.20;;
4837;SDS011;2433;48.768;9.154;2023-05-07T09:11:03;2.80;;;2.60;;
4837;SDS011;2433;48.768;9.154;2023-05-07T09:13:29;3.10;;;1.97;;
4837;SDS011;2433;48.768;9.154;2023-05-07T09:15:56;2.63;;;2.43;;
4837;SDS011;2433;48.768;9.154;2023-05-07T09:18:23;2.20;;;1.50;;
4837;SDS011;2433;48.768;9.154;2023-05-07T09:20:50;2.43;;;2.23;;
4837;SDS011;2433;48.768;9.154;2023-05-07T09:23:18;2.67;;;1.80;;
4837;SDS011;2433;48.768;9.154;2023-05-07T09:25:45;2.23;;;2.03;;
4837;SDS011;2433;48.768;9.154;2023-05-07T09:28:18;2.00;;;1.83;;
4837;SDS011;2433;48.768;9.154;2023-05-07T09:30:43;2.80;;;2.50;;
4837;SDS011;2433;48.768;9.154;2023-05-07T09:33:12;1.80;;;1.70;;
4837;SDS011;2433;48.768;9.154;2023-05-07T09:35:40;2.13;;;2.03;;
4837;SDS011;2433;48.768;9.154;2023-05-07T09:38:10;1.90;;;1.80;;
4837;SDS011;2433;48.768;9.154;2023-05-07T09:40:36;2.33;;;2.13;;
4837;SDS011;2433;48.768;9.154;2023-05-07T09:43:13;1.53;;;1.43;;
4837;SDS011;2433;48.768;9.154;2023-05-07T09:45:44;1.93;;;1.83;;
4837;SDS011;2433;48.768;9.154;2023-05-07T09:48:11;2.00;;;1.70;;
4837;SDS011;2433;48.768;9.154;2023-05-07T09:50:40;2.00;;;1.90;;
4837;SDS011;2433;48.768;9.154;2023-05-07T09:53:12;1.73;;;1.63;;
4837;SDS011;2433;48.768;9.154;2023-05-07T09:55:38;2.20;;;2.00;;
4837;SDS011;2433;48.768;9.154;2023-05-07T09:58:04;2.13;;;2.00;;
4837;SDS011;2433;48.768;9.154;2023-05-07T10:00:31;1.83;;;1.57;;
4837;SDS011;2433;48.768;9.154;2023-05-07T10:03:06;2.03;;;1.90;;
4837;SDS011;2433;48.768;9.154;2023-05-07T10:05:41;2.17;;;1.97;;
4837;SDS011;2433;48.768;9.154;2023-05-07T10:08:07;2.00;;;1.90;;
4837;SDS011;2433;48.768;9.154;2023-05-07T10:10:36;2.43;;;2.33;;
4837;SDS011;2433;48.768;9.154;2023-05-07T10:13:04;2.40;;;2.20;;
4837;SDS011;2433;48.768;9.154;2023-05-07T10:15:36;2.23;;;2.03;;
4837;SDS011;2433;48.768;9.154;2023-05-07T10:18:04;1.87;;;1.70;;
4837;SDS011;2433;48.768;9.154;2023-05-07T10:20:32;1.90;;;1.80;;
4837;SDS011;2433;48.768;9.154;2023-05-07T10:22:59;1.90;;;1.80;;
4837;SDS011;2433;48.768;9.154;2023-05-07T10:25:33;2.30;;;2.10;;
4837;SDS011;2433;48.768;9.154;2023-05-07T10:28:06;2.53;;;1.97;;
4837;SDS011;2433;48.768;9.154;2023-05-07T10:33:01;1.77;;;1.67;;
4837;SDS011;2433;48.768;9.154;2023-05-07T10:35:32;2.00;;;1.90;;
4837;SDS011;2433;48.768;9.154;2023-05-07T10:38:03;1.53;;;1.43;;
4837;SDS011;2433;48.768;9.154;2023-05-07T10:40:32;1.90;;;1.60;;
4837;SDS011;2433;48.768;9.154;2023-05-07T10:42:59;1.87;;;1.77;;
4837;SDS011;2433;48.768;9.154;2023-05-07T10:45:29;1.80;;;1.70;;
4837;SDS011;2433;48.768;9.154;2023-05-07T10:50:48;2.10;;;1.97;;
4837;SDS011;2433;48.768;9.154;2023-05-07T10:55:49;2.37;;;2.03;;
4837;SDS011;2433;48.768;9.154;2023-05-07T11:00:58;2.00;;;1.87;;
4837;SDS011;2433;48.768;9.154;2023-05-07T11:03:30;1.67;;;1.57;;
4837;SDS011;2433;48.768;9.154;2023-05-07T11:06:12;1.80;;;1.53;;
4837;SDS011;2433;48.768;9.154;2023-05-07T11:08:57;1.80;;;1.70;;
4837;SDS011;2433;48.768;9.154;2023-05-07T11:11:52;2.30;;;1.90;;
4837;SDS011;2433;48.768;9.154;2023-05-07T11:14:44;2.80;;;1.80;;
4837;SDS011;2433;48.768;9.154;2023-05-07T11:17:24;1.90;;;1.80;;
4837;SDS011;2433;48.768;9.154;2023-05-07T11:19:57;2.60;;;2.40;;
4837;SDS011;2433;48.768;9.154;2023-05-07T11:22:44;2.77;;;2.10;;
4837;SDS011;2433;48.768;9.154;2023-05-07T11:25:18;2.33;;;1.73;;
4837;SDS011;2433;48.768;9.154;2023-05-07T11:27:53;2.50;;;2.30;;
4837;SDS011;2433;48.768;9.154;2023-05-07T11:30:19;2.70;;;1.63;;
4837;SDS011;2433;48.768;9.154;2023-05-07T11:32:47;2.20;;;1.60;;
4837;SDS011;2433;48.768;9.154;2023-05-07T11:35:15;3.47;;;1.90;;
4837;SDS011;2433;48.768;9.154;2023-05-07T11:37:41;2.17;;;1.80;;
4837;SDS011;2433;48.768;9.154;2023-05-07T11:40:08;2.47;;;2.20;;
4837;SDS011;2433;48.768;9.154;2023-05-07T11:42:39;2.37;;;2.17;;
4837;SDS011;2433;48.768;9.154;2023-05-07T11:45:07;1.87;;;1.53;;
4837;SDS011;2433;48.768;9.154;2023-05-07T11:47:34;2.20;;;1.80;;
4837;SDS011;2433;48.768;9.154;2023-05-07T11:50:07;2.27;;;2.07;;
4837;SDS011;2433;48.768;9.154;2023-05-07T11:52:33;3.67;;;2.17;;
4837;SDS011;2433;48.768;9.154;2023-05-07T11:55:01;1.90;;;1.80;;
4837;SDS011;2433;48.768;9.154;2023-05-07T11:57:29;1.93;;;1.83;;
4837;SDS011;2433;48.768;9.154;2023-05-07T11:59:55;3.30;;;2.20;;
4837;SDS011;2433;48.768;9.154;2023-05-07T12:02:21;2.60;;;2.20;;
4837;SDS011;2433;48.768;9.154;2023-05-07T12:04:47;2.60;;;2.40;;
4837;SDS011;2433;48.768;9.154;2023-05-07T12:07:13;2.67;;;2.47;;
4837;SDS011;2433;48.768;9.154;2023-05-07T12:09:40;2.90;;;2.60;;
4837;SDS011;2433;48.768;9.154;2023-05-07T12:12:06;2.97;;;2.17;;
4837;SDS011;2433;48.768;9.154;2023-05-07T12:14:32;3.63;;;2.73;;
4837;SDS011;2433;48.768;9.154;2023-05-07T12:17:00;2.97;;;1.43;;
4837;SDS011;2433;48.768;9.154;2023-05-07T12:19:28;1.97;;;1.83;;
4837;SDS011;2433;48.768;9.154;2023-05-07T12:21:55;1.23;;;1.07;;
4837;SDS011;2433;48.768;9.154;2023-05-07T12:24:21;1.97;;;1.87;;
4837;SDS011;2433;48.768;9.154;2023-05-07T12:26:47;2.13;;;1.90;;
4837;SDS011;2433;48.768;9.154;2023-05-07T12:29:13;5.33;;;3.27;;
4837;SDS011;2433;48.768;9.154;2023-05-07T12:31:42;2.17;;;2.07;;
4837;SDS011;2433;48.768;9.154;2023-05-07T12:34:08;4.07;;;2.77;;
4837;SDS011;2433;48.768;9.154;2023-05-07T12:36:40;3.23;;;2.40;;
4837;SDS011;2433;48.768;9.154;2023-05-07T12:39:08;6.43;;;2.90;;
4837;SDS011;2433;48.768;9.154;2023-05-07T12:44:38;1.83;;;1.63;;
4837;SDS011;2433;48.768;9.154;2023-05-07T12:47:04;2.33;;;1.90;;
4837;SDS011;2433;48.768;9.154;2023-05-07T12:49:31;1.90;;;1.50;;
4837;SDS011;2433;48.768;9.154;2023-05-07T12:51:57;5.13;;;2.20;;
4837;SDS011;2433;48.768;9.154;2023-05-07T12:54:30;2.13;;;1.93;;
4837;SDS011;2433;48.768;9.154;2023-05-07T12:57:04;1.83;;;1.17;;
4837;SDS011;2433;48.768;9.154;2023-05-07T12:59:34;1.30;;;1.20;;
4837;SDS011;2433;48.768;9.154;2023-05-07T13:02:01;1.47;;;1.20;;
4837;SDS011;2433;48.768;9.154;2023-05-07T13:04:27;1.50;;;1.40;;
4837;SDS011;2433;48.768;9.154;2023-05-07T13:06:52;2.00;;;1.33;;
4837;SDS011;2433;48.768;9.154;2023-05-07T13:09:18;2.80;;;1.40;;
4837;SDS011;2433;48.768;9.154;2023-05-07T13:11:43;2.30;;;1.37;;
4837;SDS011;2433;48.768;9.154;2023-05-07T13:14:09;2.20;;;1.10;;
4837;SDS011;2433;48.768;9.154;2023-05-07T13:16:35;1.43;;;1.33;;
4837;SDS011;2433;48.768;9.154;2023-05-07T13:19:00;1.77;;;1.67;;
4837;SDS011;2433;48.768;9.154;2023-05-07T13:21:26;0.83;;;0.73;;
4837;SDS011;2433;48.768;9.154;2023-05-07T13:23:52;1.20;;;0.80;;
4837;SDS011;2433;48.768;9.154;2023-05-07T13:26:18;1.50;;;1.30;;
4837;SDS011;2433;48.768;9.154;2023-05-07T13:28:43;2.70;;;1.10;;
4837;SDS011;2433;48.768;9.154;2023-05-07T13:31:09;1.10;;;1.00;;
4837;SDS011;2433;48.768;9.154;2023-05-07T13:33:34;1.50;;;1.13;;
4837;SDS011;2433;48.768;9.154;2023-05-07T13:36:01;1.87;;;1.00;;
4837;SDS011;2433;48.768;9.154;2023-05-07T13:38:29;1.53;;;1.43;;
4837;SDS011;2433;48.768;9.154;2023-05-07T13:40:55;1.97;;;1.87;;
4837;SDS011;2433;48.768;9.154;2023-05-07T13:43:21;3.80;;;1.30;;
4837;SDS011;2433;48.768;9.154;2023-05-07T13:45:46;1.43;;;1.33;;
4837;SDS011;2433;48.768;9.154;2023-05-07T13:48:12;1.67;;;1.57;;
4837;SDS011;2433;48.768;9.154;2023-05-07T13:50:37;1.63;;;1.17;;
4837;SDS011;2433;48.768;9.154;2023-05-07T13:53:03;1.30;;;1.20;;
4837;SDS011;2433;48.768;9.154;2023-05-07T13:55:29;1.70;;;1.47;;
4837;SDS011;2433;48.768;9.154;2023-05-07T13:57:55;1.67;;;1.00;;
4837;SDS011;2433;48.768;9.154;2023-05-07T14:00:22;1.00;;;0.90;;
4837;SDS011;2433;48.768;9.154;2023-05-07T14:02:48;1.87;;;1.40;;
4837;SDS011;2433;48.768;9.154;2023-05-07T14:05:14;4.50;;;1.30;;
4837;SDS011;2433;48.768;9.154;2023-05-07T14:07:40;1.00;;;0.80;;
4837;SDS011;2433;48.768;9.154;2023-05-07T14:10:05;1.23;;;1.17;;
4837;SDS011;2433;48.768;9.154;2023-05-07T14:12:31;1.43;;;1.33;;
4837;SDS011;2433;48.768;9.154;2023-05-07T14:14:57;1.90;;;1.50;;
4837;SDS011;2433;48.768;9.154;2023-05-07T14:17:23;5.03;;;2.00;;
4837;SDS011;2433;48.768;9.154;2023-05-07T14:19:51;4.60;;;2.80;;
4837;SDS011;2433;48.768;9.154;2023-05-07T14:22:19;2.63;;;2.13;;
4837;SDS011;2433;48.768;9.154;2023-05-07T14:24:48;3.23;;;2.30;;
4837;SDS011;2433;48.768;9.154;2023-05-07T14:27:15;4.40;;;2.33;;
4837;SDS011;2433;48.768;9.154;2023-05-07T14:29:40;3.60;;;2.03;;
4837;SDS011;2433;48.768;9.154;2023-05-07T14:32:07;3.93;;;2.63;;
4837;SDS011;2433;48.768;9.154;2023-05-07T14:34:33;2.13;;;1.93;;
4837;SDS011;2433;48.768;9.154;2023-05-07T14:36:59;2.53;;;2.23;;
4837;SDS011;2433;48.768;9.154;2023-05-07T14:39:25;3.40;;;2.17;;
4837;SDS011;2433;48.768;9.154;2023-05-07T14:41:51;2.80;;;2.60;;
4837;SDS011;2433;48.768;9.154;2023-05-07T14:44:16;2.83;;;2.03;;
4837;SDS011;2433;48.768;9.154;2023-05-07T14:46:42;3.53;;;1.93;;
4837;SDS011;2433;48.768;9.154;2023-05-07T14:49:07;2.20;;;2.00;;
4837;SDS011;2433;48.768;9.154;2023-05-07T14:51:41;2.40;;;2.20;;
4837;SDS011;2433;48.768;9.154;2023-05-07T14:54:07;2.97;;;2.57;;
4837;SDS011;2433;48.768;9.154;2023-05-07T14:56:33;1.90;;;1.63;;
4837;SDS011;2433;48.768;9.154;2023-05-07T14:59:00;1.80;;;1.70;;
4837;SDS011;2433;48.768;9.154;2023-05-07T15:01:26;1.70;;;1.60;;
4837;SDS011;2433;48.768;9.154;2023-05-07T15:03:51;2.63;;;1.80;;
4837;SDS011;2433;48.768;9.154;2023-05-07T15:06:17;2.30;;;2.10;;
4837;SDS011;2433;48.768;9.154;2023-05-07T15:08:42;2.50;;;1.87;;
4837;SDS011;2433;48.768;9.154;2023-05-07T15:11:08;2.43;;;1.77;;
4837;SDS011;2433;48.768;9.154;2023-05-07T15:13:33;1.73;;;1.63;;
4837;SDS011;2433;48.768;9.154;2023-05-07T15:15:59;1.60;;;1.20;;
4837;SDS011;2433;48.768;9.154;2023-05-07T15:18:25;1.40;;;1.30;;
4837;SDS011;2433;48.768;9.154;2023-05-07T15:20:50;3.97;;;1.50;;
4837;SDS011;2433;48.768;9.154;2023-05-07T15:23:16;1.67;;;1.57;;
4837;SDS011;2433;48.768;9.154;2023-05-07T15:25:45;1.87;;;1.50;;
4837;SDS011;2433;48.768;9.154;2023-05-07T15:28:10;1.93;;;1.67;;